createdAt,value
2022-11-06T00:00:37.641Z,99.90
2022-11-06T00:03:07.153Z,99.90
2022-11-06T00:05:52.646Z,99.90
2022-11-06T00:08:26.649Z,99.90
2022-11-06T00:10:53.420Z,99.90
2022-11-06T00:13:20.173Z,99.90
2022-11-06T00:15:46.901Z,99.90
2022-11-06T00:18:13.873Z,99.90
2022-11-06T00:20:40.860Z,99.90
2022-11-06T00:23:07.569Z,99.90
2022-11-06T00:25:34.293Z,99.90
2022-11-06T00:28:01.050Z,99.90
2022-11-06T00:30:27.795Z,99.90
2022-11-06T00:32:54.532Z,99.90
2022-11-06T00:35:21.245Z,99.90
2022-11-06T00:37:47.997Z,99.90
2022-11-06T00:40:14.735Z,99.90
2022-11-06T00:42:41.506Z,99.90
2022-11-06T00:45:08.614Z,99.90
2022-11-06T00:47:36.444Z,99.90
2022-11-06T00:50:03.232Z,99.90
2022-11-06T00:52:30.183Z,99.90
2022-11-06T00:54:56.936Z,99.90
2022-11-06T00:57:23.677Z,99.90
2022-11-06T00:59:50.410Z,99.90
2022-11-06T01:02:19.601Z,99.90
2022-11-06T01:04:47.139Z,99.90
2022-11-06T01:07:13.864Z,99.90
2022-11-06T01:09:40.572Z,99.90
2022-11-06T01:12:14.921Z,99.90
2022-11-06T01:14:41.979Z,99.90
2022-11-06T01:17:08.770Z,99.90
2022-11-06T01:19:35.524Z,99.90
2022-11-06T01:22:02.266Z,99.90
2022-11-06T01:24:29.051Z,99.90
2022-11-06T01:27:24.786Z,99.90
2022-11-06T01:29:42.850Z,99.90
2022-11-06T01:32:09.659Z,99.90
2022-11-06T01:34:36.392Z,99.90
2022-11-06T01:37:03.234Z,99.90
2022-11-06T01:39:30.012Z,99.90
2022-11-06T01:41:56.802Z,99.90
2022-11-06T01:44:35.665Z,99.90
2022-11-06T01:47:04.512Z,99.90
2022-11-06T01:49:33.385Z,99.90
2022-11-06T01:52:01.354Z,99.90
2022-11-06T01:54:28.093Z,99.90
2022-11-06T01:56:55.669Z,99.90
2022-11-06T01:59:23.673Z,99.90
2022-11-06T02:01:50.534Z,99.90
2022-11-06T02:04:18.561Z,99.90
2022-11-06T02:06:45.844Z,99.90
2022-11-06T02:09:12.769Z,99.90
2022-11-06T02:11:41.012Z,99.90
2022-11-06T02:14:24.435Z,99.90
2022-11-06T02:17:00.610Z,99.90
2022-11-06T02:19:46.899Z,99.90
2022-11-06T02:22:13.729Z,99.90
2022-11-06T02:24:49.557Z,99.90
2022-11-06T02:27:17.317Z,99.90
2022-11-06T02:29:52.564Z,99.90
2022-11-06T02:32:21.333Z,99.90
2022-11-06T02:34:48.165Z,99.90
2022-11-06T02:37:15.892Z,99.90
2022-11-06T02:39:42.985Z,99.90
2022-11-06T02:42:10.100Z,99.90
2022-11-06T02:44:36.966Z,99.90
2022-11-06T02:47:07.547Z,99.90
2022-11-06T02:49:37.280Z,99.90
2022-11-06T02:52:05.278Z,99.90
2022-11-06T02:54:32.264Z,99.90
2022-11-06T02:56:59.865Z,99.90
2022-11-06T02:59:31.863Z,99.90
2022-11-06T03:02:00.337Z,99.90
2022-11-06T03:04:39.531Z,99.90
2022-11-06T03:07:08.927Z,99.90
2022-11-06T03:09:36.597Z,99.90
2022-11-06T03:12:17.686Z,99.90
2022-11-06T03:15:04.686Z,99.90
2022-11-06T03:17:31.503Z,99.90
2022-11-06T03:20:03.961Z,99.90
2022-11-06T03:22:49.495Z,99.90
2022-11-06T03:25:18.805Z,99.90
2022-11-06T03:27:45.580Z,99.90
2022-11-06T03:30:16.198Z,99.90
2022-11-06T03:32:53.631Z,99.90
2022-11-06T03:35:28.538Z,99.90
2022-11-06T03:38:09.533Z,99.90
2022-11-06T03:40:37.940Z,99.90
2022-11-06T03:43:05.262Z,99.90
2022-11-06T03:45:32.173Z,99.90
2022-11-06T03:48:08.145Z,99.90
2022-11-06T03:50:45.208Z,99.90
2022-11-06T03:53:20.831Z,99.90
2022-11-06T03:55:49.269Z,99.90
2022-11-06T03:58:20.487Z,99.90
2022-11-06T04:00:47.338Z,99.90
2022-11-06T04:03:32.379Z,99.90
2022-11-06T04:06:01.040Z,99.90
2022-11-06T04:08:46.618Z,99.90
2022-11-06T04:11:32.852Z,99.90
2022-11-06T04:14:02.596Z,99.90
2022-11-06T04:16:36.565Z,99.90
2022-11-06T04:19:03.394Z,99.90
2022-11-06T04:21:38.995Z,99.90
2022-11-06T04:24:42.929Z,99.90
2022-11-06T04:27:09.693Z,99.90
2022-11-06T04:29:55.025Z,99.90
2022-11-06T04:32:24.567Z,99.90
2022-11-06T04:34:55.474Z,99.90
2022-11-06T04:37:30.869Z,99.90
2022-11-06T04:40:09.153Z,99.90
2022-11-06T04:42:39.363Z,99.90
2022-11-06T04:45:14.434Z,99.90
2022-11-06T04:47:41.219Z,99.90
2022-11-06T04:50:08.129Z,99.90
2022-11-06T04:52:34.982Z,99.90
2022-11-06T04:55:01.759Z,99.90
2022-11-06T04:57:28.537Z,99.90
2022-11-06T04:59:56.938Z,99.90
2022-11-06T05:02:23.829Z,99.90
2022-11-06T05:04:50.652Z,99.90
2022-11-06T05:07:17.702Z,99.90
2022-11-06T05:09:45.710Z,99.90
2022-11-06T05:12:12.635Z,99.90
2022-11-06T05:14:39.493Z,99.90
2022-11-06T05:17:06.291Z,99.90
2022-11-06T05:19:33.061Z,99.90
2022-11-06T05:22:18.179Z,99.90
2022-11-06T05:24:44.994Z,99.90
2022-11-06T05:27:11.798Z,99.90
2022-11-06T05:29:38.616Z,99.90
2022-11-06T05:32:05.571Z,99.90
2022-11-06T05:34:32.340Z,99.90
2022-11-06T05:36:59.108Z,99.90
2022-11-06T05:39:25.888Z,99.90
2022-11-06T05:41:52.791Z,99.90
2022-11-06T05:44:19.653Z,99.90
2022-11-06T05:46:49.302Z,99.90
2022-11-06T05:49:17.099Z,99.90
2022-11-06T05:51:43.955Z,99.90
2022-11-06T05:54:10.795Z,99.90
2022-11-06T05:56:37.562Z,99.90
2022-11-06T05:59:04.477Z,99.90
2022-11-06T06:01:31.389Z,99.90
2022-11-06T06:03:58.348Z,99.90
2022-11-06T06:06:25.132Z,99.90
2022-11-06T06:08:51.948Z,99.90
2022-11-06T06:11:18.720Z,99.90
2022-11-06T06:13:45.593Z,99.90
2022-11-06T06:16:12.408Z,99.90
2022-11-06T06:18:39.236Z,99.90
2022-11-06T06:21:06.177Z,99.90
2022-11-06T06:23:32.949Z,99.90
2022-11-06T06:25:59.766Z,99.90
2022-11-06T06:28:26.981Z,99.90
2022-11-06T06:30:58.587Z,99.90
2022-11-06T06:33:28.115Z,99.90
2022-11-06T06:35:55.105Z,99.90
2022-11-06T06:38:22.186Z,99.90
2022-11-06T06:40:48.995Z,99.90
2022-11-06T06:43:15.789Z,99.90
2022-11-06T06:45:42.588Z,99.90
2022-11-06T06:48:09.536Z,99.90
2022-11-06T06:50:36.505Z,99.90
2022-11-06T06:53:03.883Z,99.90
2022-11-06T06:55:30.721Z,99.90
2022-11-06T06:58:00.684Z,99.90
2022-11-06T07:00:27.877Z,99.90
2022-11-06T07:02:54.755Z,99.90
2022-11-06T07:05:21.583Z,99.90
2022-11-06T07:07:48.529Z,99.90
2022-11-06T07:10:15.340Z,99.90
2022-11-06T07:12:42.139Z,99.90
2022-11-06T07:15:09.074Z,99.90
2022-11-06T07:17:35.879Z,99.90
2022-11-06T07:20:03.349Z,99.90
2022-11-06T07:22:36.636Z,99.90
2022-11-06T07:25:04.327Z,99.90
2022-11-06T07:27:31.186Z,99.90
2022-11-06T07:29:57.992Z,99.90
2022-11-06T07:32:24.789Z,99.90
2022-11-06T07:34:51.550Z,99.90
2022-11-06T07:37:18.402Z,99.90
2022-11-06T07:39:45.150Z,99.90
2022-11-06T07:42:12.008Z,99.90
2022-11-06T07:44:55.562Z,99.90
2022-11-06T07:47:22.583Z,99.90
2022-11-06T07:49:51.101Z,99.90
2022-11-06T07:52:18.097Z,99.90
2022-11-06T07:54:44.986Z,99.90
2022-11-06T07:57:11.785Z,99.90
2022-11-06T07:59:38.597Z,99.90
2022-11-06T08:02:05.734Z,99.90
2022-11-06T08:04:32.637Z,99.90
2022-11-06T08:06:59.432Z,99.90
2022-11-06T08:09:26.319Z,99.90
2022-11-06T08:11:53.133Z,99.90
2022-11-06T08:14:19.971Z,99.90
2022-11-06T08:16:46.782Z,99.90
2022-11-06T08:19:13.585Z,99.90
2022-11-06T08:21:40.385Z,99.90
2022-11-06T08:24:07.387Z,99.90
2022-11-06T08:26:34.435Z,99.90
2022-11-06T08:29:04.452Z,99.90
2022-11-06T08:31:31.299Z,99.90
2022-11-06T08:33:58.178Z,99.90
2022-11-06T08:36:25.097Z,99.90
2022-11-06T08:38:51.940Z,99.90
2022-11-06T08:41:18.719Z,99.90
2022-11-06T08:43:45.715Z,99.90
2022-11-06T08:46:12.559Z,99.90
2022-11-06T08:48:39.400Z,99.90
2022-11-06T08:51:06.351Z,99.90
2022-11-06T08:53:33.254Z,99.90
2022-11-06T08:56:00.575Z,99.90
2022-11-06T08:58:30.310Z,99.90
2022-11-06T09:00:57.203Z,99.90
2022-11-06T09:03:24.047Z,99.90
2022-11-06T09:05:50.797Z,99.90
2022-11-06T09:08:17.629Z,99.90
2022-11-06T09:10:44.501Z,99.90
2022-11-06T09:13:11.639Z,99.90
2022-11-06T09:15:38.767Z,99.90
2022-11-06T09:18:05.737Z,99.90
2022-11-06T09:20:32.550Z,99.90
2022-11-06T09:23:03.285Z,99.90
2022-11-06T09:25:30.165Z,99.90
2022-11-06T09:27:59.443Z,99.90
2022-11-06T09:30:27.873Z,99.90
2022-11-06T09:32:55.537Z,99.90
2022-11-06T09:35:22.718Z,99.90
2022-11-06T09:37:49.548Z,99.90
2022-11-06T09:40:21.211Z,99.90
2022-11-06T09:42:57.052Z,99.90
2022-11-06T09:45:24.736Z,99.90
2022-11-06T09:48:14.817Z,99.90
2022-11-06T09:50:52.056Z,99.90
2022-11-06T09:53:24.292Z,99.90
2022-11-06T09:55:51.463Z,99.90
2022-11-06T09:58:19.438Z,99.90
2022-11-06T10:00:46.324Z,99.90
2022-11-06T10:03:17.964Z,99.90
2022-11-06T10:05:44.725Z,99.90
2022-11-06T10:08:16.182Z,99.90
2022-11-06T10:10:58.436Z,99.90
2022-11-06T10:14:08.827Z,99.90
2022-11-06T10:16:39.023Z,99.90
2022-11-06T10:19:10.683Z,99.90
2022-11-06T10:21:43.488Z,99.90
2022-11-06T10:24:21.028Z,99.90
2022-11-06T10:26:55.135Z,99.90
2022-11-06T10:29:28.011Z,99.90
2022-11-06T10:32:00.758Z,99.90
2022-11-06T10:34:37.998Z,99.90
2022-11-06T10:37:16.738Z,99.90
2022-11-06T10:39:44.170Z,99.90
2022-11-06T10:42:12.787Z,99.90
2022-11-06T10:44:41.566Z,99.90
2022-11-06T10:47:28.049Z,99.90
2022-11-06T10:49:55.698Z,99.90
2022-11-06T10:52:22.508Z,99.90
2022-11-06T10:54:49.279Z,99.90
2022-11-06T10:57:31.423Z,99.90
2022-11-06T10:59:58.211Z,99.90
2022-11-06T11:02:29.312Z,99.90
2022-11-06T11:04:58.276Z,99.90
2022-11-06T11:07:25.762Z,99.90
2022-11-06T11:09:52.589Z,99.90
2022-11-06T11:12:20.587Z,99.90
2022-11-06T11:14:47.350Z,99.90
2022-11-06T11:17:18.890Z,99.90
2022-11-06T11:19:45.713Z,99.90
2022-11-06T11:22:12.467Z,99.90
2022-11-06T11:24:39.234Z,99.90
2022-11-06T11:27:06.515Z,99.90
2022-11-06T11:29:34.362Z,99.90
2022-11-06T11:32:05.089Z,99.90
2022-11-06T11:34:32.656Z,99.90
2022-11-06T11:37:03.417Z,99.90
2022-11-06T11:39:31.151Z,99.90
2022-11-06T11:42:16.927Z,99.90
2022-11-06T11:44:43.862Z,99.90
2022-11-06T11:47:23.518Z,99.90
2022-11-06T11:49:50.379Z,99.90
2022-11-06T11:52:18.796Z,99.90
2022-11-06T11:54:50.677Z,99.90
2022-11-06T11:57:18.246Z,99.90
2022-11-06T11:59:45.910Z,99.90
2022-11-06T12:02:14.940Z,99.90
2022-11-06T12:04:42.547Z,99.90
2022-11-06T12:07:14.366Z,99.90
2022-11-06T12:09:41.898Z,99.90
2022-11-06T12:12:09.238Z,99.90
2022-11-06T12:14:56.693Z,99.90
2022-11-06T12:17:23.497Z,99.90
2022-11-06T12:19:53.573Z,99.90
2022-11-06T12:22:23.309Z,99.90
2022-11-06T12:24:52.832Z,99.90
2022-11-06T12:27:21.391Z,99.90
2022-11-06T12:29:49.028Z,99.90
2022-11-06T12:32:18.878Z,99.90
2022-11-06T12:34:48.503Z,99.90
2022-11-06T12:37:15.279Z,99.90
2022-11-06T12:39:42.696Z,99.90
2022-11-06T12:42:13.863Z,99.90
2022-11-06T12:44:40.699Z,99.90
2022-11-06T12:47:08.573Z,99.90
2022-11-06T12:49:47.627Z,99.90
2022-11-06T12:52:14.454Z,99.90
2022-11-06T12:54:44.298Z,99.90
2022-11-06T12:57:21.863Z,99.90
2022-11-06T13:00:07.604Z,99.90
2022-11-06T13:02:52.937Z,99.90
2022-11-06T13:05:33.721Z,99.90
2022-11-06T13:08:00.626Z,99.90
2022-11-06T13:10:33.526Z,99.90
2022-11-06T13:13:19.981Z,99.90
2022-11-06T13:15:52.998Z,99.90
2022-11-06T13:18:30.533Z,99.90
2022-11-06T13:20:58.054Z,99.90
2022-11-06T13:23:34.031Z,99.90
2022-11-06T13:26:03.594Z,99.90
2022-11-06T13:28:30.459Z,99.90
2022-11-06T13:30:57.388Z,99.90
2022-11-06T13:33:28.202Z,99.90
2022-11-06T13:35:55.083Z,99.90
2022-11-06T13:38:28.781Z,99.90
2022-11-06T13:41:02.186Z,99.90
2022-11-06T13:43:37.767Z,99.90
2022-11-06T13:46:04.986Z,99.90
2022-11-06T13:48:37.464Z,99.90
2022-11-06T13:51:23.298Z,99.90
2022-11-06T13:53:59.707Z,99.90
2022-11-06T13:56:37.583Z,99.90
2022-11-06T13:59:24.031Z,99.90
2022-11-06T14:02:15.170Z,99.90
2022-11-06T14:04:53.685Z,99.90
2022-11-06T14:07:20.949Z,99.90
2022-11-06T14:09:47.772Z,99.90
2022-11-06T14:12:18.550Z,99.90
2022-11-06T14:14:45.358Z,99.90
2022-11-06T14:17:12.171Z,99.90
2022-11-06T14:19:39.405Z,99.90
2022-11-06T14:22:09.296Z,99.90
2022-11-06T14:24:39.820Z,99.90
2022-11-06T14:27:28.788Z,99.00
2022-11-06T14:29:56.122Z,99.90
2022-11-06T14:32:32.036Z,99.00
2022-11-06T14:35:17.614Z,98.80
2022-11-06T14:37:45.228Z,99.90
2022-11-06T14:40:12.558Z,99.70
2022-11-06T14:42:43.801Z,98.90
2022-11-06T14:45:20.276Z,99.00
2022-11-06T14:47:49.875Z,98.50
2022-11-06T14:50:19.895Z,98.60
2022-11-06T14:52:52.866Z,98.00
2022-11-06T14:55:30.242Z,98.30
2022-11-06T14:57:58.361Z,99.20
2022-11-06T15:00:34.438Z,99.90
2022-11-06T15:03:01.655Z,99.10
2022-11-06T15:05:30.170Z,99.90
2022-11-06T15:08:15.613Z,99.90
2022-11-06T15:10:42.614Z,99.70
2022-11-06T15:13:13.533Z,99.40
2022-11-06T15:15:41.394Z,99.60
2022-11-06T15:18:10.163Z,99.90
2022-11-06T15:20:36.961Z,99.90
2022-11-06T15:23:10.425Z,99.90
2022-11-06T15:25:37.450Z,99.90
2022-11-06T15:28:06.029Z,99.90
2022-11-06T15:30:53.159Z,99.90
2022-11-06T15:33:33.150Z,99.90
2022-11-06T15:36:04.557Z,99.90
2022-11-06T15:38:38.477Z,99.90
2022-11-06T15:41:05.989Z,99.90
2022-11-06T15:43:37.466Z,99.90
2022-11-06T15:46:13.350Z,99.90
2022-11-06T15:48:40.135Z,99.90
2022-11-06T15:51:20.190Z,99.90
2022-11-06T15:53:46.985Z,99.90
2022-11-06T15:56:14.347Z,99.90
2022-11-06T15:58:41.142Z,99.90
2022-11-06T16:01:08.079Z,99.90
2022-11-06T16:03:45.290Z,99.90
2022-11-06T16:06:12.074Z,99.90
2022-11-06T16:08:39.173Z,99.90
2022-11-06T16:11:10.722Z,99.90
2022-11-06T16:13:39.986Z,99.90
2022-11-06T16:16:06.893Z,99.90
2022-11-06T16:18:33.664Z,99.90
2022-11-06T16:21:18.921Z,99.90
2022-11-06T16:23:45.750Z,99.90
2022-11-06T16:26:17.002Z,99.90
2022-11-06T16:28:47.276Z,99.90
2022-11-06T16:31:15.460Z,99.90
2022-11-06T16:33:53.024Z,99.90
2022-11-06T16:36:19.785Z,99.90
2022-11-06T16:38:47.005Z,99.90
2022-11-06T16:41:37.351Z,99.90
2022-11-06T16:44:33.677Z,99.90
2022-11-06T16:47:10.782Z,99.90
2022-11-06T16:49:38.289Z,99.90
2022-11-06T16:52:17.535Z,99.90
2022-11-06T16:55:02.788Z,99.90
2022-11-06T16:57:30.817Z,99.90
2022-11-06T16:59:59.154Z,99.90
2022-11-06T17:02:27.114Z,99.90
2022-11-06T17:05:06.185Z,99.90
2022-11-06T17:07:32.970Z,99.90
2022-11-06T17:10:19.705Z,99.90
2022-11-06T17:12:46.499Z,99.90
2022-11-06T17:15:13.308Z,99.90
2022-11-06T17:17:40.252Z,99.90
2022-11-06T17:20:12.237Z,99.90
2022-11-06T17:22:39.012Z,99.90
2022-11-06T17:25:05.898Z,99.90
2022-11-06T17:27:32.713Z,99.90
2022-11-06T17:29:59.504Z,99.90
2022-11-06T17:32:26.333Z,99.90
2022-11-06T17:34:53.113Z,99.90
2022-11-06T17:37:22.065Z,99.90
2022-11-06T17:39:48.926Z,99.90
2022-11-06T17:42:15.733Z,99.90
2022-11-06T17:44:42.571Z,99.90
2022-11-06T17:47:09.395Z,99.90
2022-11-06T17:49:36.157Z,99.90
2022-11-06T17:52:02.934Z,99.90
2022-11-06T17:54:32.404Z,99.90
2022-11-06T17:57:00.323Z,99.90
2022-11-06T17:59:27.090Z,99.90
2022-11-06T18:01:54.250Z,99.90
2022-11-06T18:04:22.075Z,99.90
2022-11-06T18:06:49.352Z,99.90
2022-11-06T18:09:16.138Z,99.90
2022-11-06T18:11:42.938Z,99.90
2022-11-06T18:14:09.948Z,99.90
2022-11-06T18:16:42.271Z,99.90
2022-11-06T18:19:10.654Z,99.90
2022-11-06T18:21:37.583Z,99.90
2022-11-06T18:24:04.520Z,99.90
2022-11-06T18:26:31.300Z,99.90
2022-11-06T18:28:58.088Z,99.90
2022-11-06T18:31:24.890Z,99.90
2022-11-06T18:33:51.678Z,99.90
2022-11-06T18:40:18.408Z,99.90
2022-11-06T18:42:45.260Z,99.90
2022-11-06T18:45:12.058Z,99.90
2022-11-06T18:47:39.064Z,99.90
2022-11-06T18:50:06.089Z,99.90
2022-11-06T18:52:56.475Z,99.90
2022-11-06T18:55:19.707Z,99.90
2022-11-06T18:57:46.489Z,99.90
2022-11-06T19:00:14.158Z,99.90
2022-11-06T19:02:41.102Z,99.90
2022-11-06T19:05:08.221Z,99.90
2022-11-06T19:07:35.094Z,99.90
2022-11-06T19:10:01.888Z,99.90
2022-11-06T19:12:28.712Z,99.90
2022-11-06T19:14:55.604Z,99.90
2022-11-06T19:17:22.445Z,99.90
2022-11-06T19:19:49.355Z,99.90
2022-11-06T19:22:16.171Z,99.90
2022-11-06T19:24:43.039Z,99.90
2022-11-06T19:27:09.857Z,99.90
2022-11-06T19:29:36.780Z,99.90
2022-11-06T19:32:03.626Z,99.90
2022-11-06T19:34:33.035Z,99.90
2022-11-06T19:37:02.103Z,99.90
2022-11-06T19:39:29.111Z,99.90
2022-11-06T19:41:57.800Z,99.90
2022-11-06T19:44:24.607Z,99.90
2022-11-06T19:46:51.913Z,99.90
2022-11-06T19:49:18.669Z,99.90
2022-11-06T19:51:45.443Z,99.90
2022-11-06T19:54:12.277Z,99.90
2022-11-06T19:57:27.258Z,99.90
2022-11-06T19:59:25.926Z,99.90
2022-11-06T20:01:52.814Z,99.90
2022-11-06T20:04:19.880Z,99.90
2022-11-06T20:06:46.630Z,99.90
2022-11-06T20:09:13.558Z,99.90
2022-11-06T20:11:40.399Z,99.90
2022-11-06T20:14:07.216Z,99.90
2022-11-06T20:16:34.016Z,99.90
2022-11-06T20:19:00.808Z,99.90
2022-11-06T20:21:30.619Z,99.90
2022-11-06T20:23:57.589Z,99.90
2022-11-06T20:26:24.468Z,99.90
2022-11-06T20:28:51.411Z,99.90
2022-11-06T20:31:21.669Z,99.90
2022-11-06T20:33:48.588Z,99.90
2022-11-06T20:36:16.556Z,99.90
2022-11-06T20:38:44.786Z,99.90
2022-11-06T20:41:13.086Z,99.90
2022-11-06T20:43:40.194Z,99.90
2022-11-06T20:46:07.082Z,99.90
2022-11-06T20:48:33.908Z,99.90
2022-11-06T20:51:01.793Z,99.90
2022-11-06T20:53:28.656Z,99.90
2022-11-06T20:55:59.188Z,99.90
2022-11-06T20:58:26.321Z,99.90
2022-11-06T21:01:02.568Z,99.90
2022-11-06T21:03:29.480Z,99.90
2022-11-06T21:05:56.424Z,99.90
2022-11-06T21:08:23.263Z,99.90
2022-11-06T21:11:04.787Z,99.90
2022-11-06T21:13:33.124Z,99.90
2022-11-06T21:16:00.546Z,99.90
2022-11-06T21:18:27.653Z,99.90
2022-11-06T21:20:54.699Z,99.90
2022-11-06T21:23:21.730Z,99.90
2022-11-06T21:25:48.653Z,99.90
2022-11-06T21:28:15.443Z,99.90
2022-11-06T21:30:42.747Z,99.90
2022-11-06T21:33:09.531Z,99.90
2022-11-06T21:35:36.403Z,99.90
2022-11-06T21:38:03.431Z,99.90
2022-11-06T21:40:30.288Z,99.90
2022-11-06T21:42:57.088Z,99.90
2022-11-06T21:45:24.052Z,99.90
2022-11-06T21:47:50.860Z,99.90
2022-11-06T21:50:28.119Z,99.90
2022-11-06T21:53:15.315Z,99.90
2022-11-06T21:56:00.711Z,99.90
2022-11-06T21:58:27.577Z,99.90
2022-11-06T22:00:54.341Z,99.90
2022-11-06T22:03:21.175Z,99.90
2022-11-06T22:05:48.013Z,99.90
2022-11-06T22:08:15.064Z,99.90
2022-11-06T22:10:41.964Z,99.90
2022-11-06T22:13:08.751Z,99.90
2022-11-06T22:15:35.522Z,99.90
2022-11-06T22:18:02.523Z,99.90
2022-11-06T22:20:29.318Z,99.90
2022-11-06T22:22:56.220Z,99.90
2022-11-06T22:25:23.051Z,99.90
2022-11-06T22:27:50.037Z,99.90
2022-11-06T22:30:16.785Z,99.90
2022-11-06T22:32:43.569Z,99.90
2022-11-06T22:35:10.352Z,99.90
2022-11-06T22:37:37.156Z,99.90
2022-11-06T22:40:04.316Z,99.90
2022-11-06T22:42:31.151Z,99.90
2022-11-06T22:44:58.164Z,99.90
2022-11-06T22:47:25.044Z,99.90
2022-11-06T22:49:51.895Z,99.90
2022-11-06T22:52:18.682Z,99.90
2022-11-06T22:54:45.481Z,99.90
2022-11-06T22:57:12.285Z,99.90
2022-11-06T22:59:39.164Z,99.90
2022-11-06T23:02:06.012Z,99.90
2022-11-06T23:04:32.826Z,99.90
2022-11-06T23:06:59.640Z,99.90
2022-11-06T23:09:26.438Z,99.90
2022-11-06T23:11:53.402Z,99.90
2022-11-06T23:14:20.227Z,99.90
2022-11-06T23:17:00.917Z,99.90
2022-11-06T23:19:28.608Z,99.90
2022-11-06T23:22:15.357Z,99.90
2022-11-06T23:24:42.169Z,99.90
2022-11-06T23:27:09.362Z,99.90
2022-11-06T23:29:36.241Z,99.90
2022-11-06T23:32:03.559Z,99.90
2022-11-06T23:34:30.389Z,99.90
2022-11-06T23:36:57.160Z,99.90
2022-11-06T23:39:23.927Z,99.90
2022-11-06T23:41:51.199Z,99.90
2022-11-06T23:44:36.819Z,99.90
2022-11-06T23:47:03.663Z,99.90
2022-11-06T23:49:30.426Z,99.90
2022-11-06T23:51:57.306Z,99.90
2022-11-06T23:54:25.290Z,99.90
2022-11-06T23:56:52.070Z,99.90
2022-11-06T23:59:18.872Z,99.90
